This is the latest recevied weather packets stored in our database for station/object K5UBE. If no packets are shown the sender has not sent any weather packets the latest 10 day(s).
| Time | Temp. | Humidity | Pressure | Rain* | Wind** | Luminosity | Snow |
|---|---|---|---|---|---|---|---|
| 1777761323 | 21.11° C | 28% | 1023.3 hPa | 0 mm | - | - | - |
| 1777761021 | 18.89° C | 31% | 1023 hPa | 0 mm | - | - | - |
| 1777760718 | 18.89° C | 31% | 1023.2 hPa | 0 mm | - | - | - |
| 1777760414 | 19.44° C | 30% | 1023.2 hPa | 0 mm | - | - | - |
| 1777760109 | 20.56° C | 29% | 1023.2 hPa | 0 mm | - | - | - |
| 1777759807 | 20.56° C | 29% | 1023.5 hPa | 0 mm | - | - | - |
| 1777759502 | 20.56° C | 29% | 1023.4 hPa | 0 mm | - | - | - |
| 1777759199 | 21.11° C | 28% | 1023.4 hPa | 0 mm | - | - | - |
| 1777758897 | 20.56° C | 28% | 1023.5 hPa | 0 mm | - | - | - |
| 1777758593 | 20.56° C | 29% | 1023.6 hPa | 0 mm | - | - | - |
| 1777758291 | 19.44° C | 29% | 1023.7 hPa | 0 mm | - | - | - |
| 1777757988 | 18.89° C | 31% | 1023.9 hPa | 0 mm | - | - | - |
| 1777757684 | 19.44° C | 30% | 1023.9 hPa | 0 mm | - | - | - |
| 1777757383 | 19.44° C | 31% | 1024.1 hPa | 0 mm | - | - | - |
| 1777757081 | 20.56° C | 29% | 1024 hPa | 0 mm | - | - | - |
| 1777756778 | 21.67° C | 27% | 1024 hPa | 0 mm | - | - | - |
| 1777756474 | 21.11° C | 28% | 1024.1 hPa | 0 mm | - | - | - |
| 1777756171 | 20.56° C | 29% | 1024.3 hPa | 0 mm | - | - | - |
| 1777755868 | 20.56° C | 29% | 1024.4 hPa | 0 mm | - | - | - |
| 1777755565 | 21.11° C | 28% | 1024.2 hPa | 0 mm | - | - | - |
| 1777755261 | 21.67° C | 29% | 1024.5 hPa | 0 mm | - | - | - |
| 1777754959 | 21.67° C | 28% | 1024.5 hPa | 0 mm | - | - | - |
| 1777754656 | 20° C | 30% | 1024.5 hPa | 0 mm | - | - | - |
| 1777754354 | 20.56° C | 28% | 1024.6 hPa | 0 mm | - | - | - |
| 1777754051 | 20° C | 28% | 1024.6 hPa | 0 mm | - | - | - |
* Rain latest hour (hover to see other rain measurements)
** Current wind speed in m/s (hover to see current wind gust speed)